Time;durP1;ratioP1;P1;durP2;ratioP2;P2;SDS_P1;SDS_P2;PMS_P1;PMS_P2;Temp;Humidity;BMP_temperature;BMP_pressure;BME280_temperature;BME280_humidity;BME280_pressure;Samples;Min_cycle;Max_cycle;Signal;HPM_P1;HPM_P2
2023/08/18 00:00:15;;;;;;;1.70;1.60;;;;;;;;;;5019560;28;20025;-78
2023/08/18 00:02:41;;;;;;;1.60;1.50;;;;;;;;;;5020702;28;20033;-78
2023/08/18 00:05:07;;;;;;;1.23;1.20;;;;;;;;;;5018816;28;20037;-77
2023/08/18 00:07:33;;;;;;;1.60;1.50;;;;;;;;;;5021032;28;20034;-78
2023/08/18 00:10:00;;;;;;;1.70;1.45;;;;;;;;;;5029770;28;20297;-78
2023/08/18 00:12:26;;;;;;;2.05;1.60;;;;;;;;;;5027326;28;20033;-77
2023/08/18 00:14:52;;;;;;;1.50;1.40;;;;;;;;;;5020301;28;20026;-78
2023/08/18 00:17:18;;;;;;;1.60;1.50;;;;;;;;;;5019932;28;20030;-78
2023/08/18 00:19:44;;;;;;;1.60;1.50;;;;;;;;;;4999075;28;20532;-77
2023/08/18 00:22:11;;;;;;;1.90;1.73;;;;;;;;;;5005165;28;20017;-78
2023/08/18 00:24:37;;;;;;;1.70;1.60;;;;;;;;;;5024399;28;20022;-77
2023/08/18 00:27:03;;;;;;;1.58;1.48;;;;;;;;;;5025175;28;20093;-78
2023/08/18 00:29:29;;;;;;;1.80;1.70;;;;;;;;;;5024766;28;20022;-78
2023/08/18 00:31:55;;;;;;;1.58;1.48;;;;;;;;;;5031225;28;20053;-77
2023/08/18 00:34:21;;;;;;;1.50;1.40;;;;;;;;;;5013720;28;20021;-77
2023/08/18 00:36:47;;;;;;;1.45;1.35;;;;;;;;;;5031302;28;20041;-78
2023/08/18 00:39:15;;;;;;;1.45;1.42;;;;;;;;;;5014954;28;20010;-77
2023/08/18 00:41:41;;;;;;;1.80;1.55;;;;;;;;;;5032700;28;20033;-78
2023/08/18 00:44:07;;;;;;;1.42;1.38;;;;;;;;;;5010407;28;20032;-77
2023/08/18 00:46:34;;;;;;;1.48;1.42;;;;;;;;;;5020836;28;20022;-77
2023/08/18 00:49:02;;;;;;;1.38;1.33;;;;;;;;;;4996261;28;20018;-78
2023/08/18 00:51:28;;;;;;;1.33;1.23;;;;;;;;;;4982525;28;20026;-77
2023/08/18 00:53:55;;;;;;;1.55;1.40;;;;;;;;;;4982313;28;20077;-78
2023/08/18 00:56:21;;;;;;;1.60;1.50;;;;;;;;;;4999153;28;20022;-79
2023/08/18 00:58:48;;;;;;;1.52;1.42;;;;;;;;;;5018186;28;20127;-77
2023/08/18 01:01:14;;;;;;;1.70;1.60;;;;;;;;;;5023382;28;20029;-77
2023/08/18 01:03:41;;;;;;;1.63;1.30;;;;;;;;;;5024026;28;20107;-77
2023/08/18 01:06:07;;;;;;;1.38;1.27;;;;;;;;;;5024045;28;20029;-77
2023/08/18 01:08:33;;;;;;;1.17;1.17;;;;;;;;;;5025935;28;20033;-77
2023/08/18 01:11:09;;;;;;;1.65;1.55;;;;;;;;;;5007762;28;20033;-77
2023/08/18 01:13:45;;;;;;;1.40;1.30;;;;;;;;;;5021827;28;20049;-77
2023/08/18 01:16:14;;;;;;;1.23;1.23;;;;;;;;;;5046205;28;20025;-77
2023/08/18 01:18:40;;;;;;;1.42;1.38;;;;;;;;;;5046855;28;20037;-77
2023/08/18 01:21:10;;;;;;;1.40;1.30;;;;;;;;;;5012635;28;20031;-76
2023/08/18 01:23:40;;;;;;;1.60;1.50;;;;;;;;;;5014481;28;20022;-77
2023/08/18 01:26:06;;;;;;;1.40;1.30;;;;;;;;;;5040676;28;20033;-78
2023/08/18 01:28:33;;;;;;;1.00;1.00;;;;;;;;;;5029843;28;20105;-78
2023/08/18 01:31:00;;;;;;;1.42;1.33;;;;;;;;;;5029963;28;20036;-78
2023/08/18 01:33:41;;;;;;;0.95;0.95;;;;;;;;;;5012884;28;20105;-77
2023/08/18 01:36:12;;;;;;;1.23;1.23;;;;;;;;;;5029755;28;20040;-77
2023/08/18 01:38:39;;;;;;;1.52;1.42;;;;;;;;;;5029027;28;20037;-77
2023/08/18 01:41:06;;;;;;;2.05;1.02;;;;;;;;;;5020667;28;20086;-77
2023/08/18 01:43:33;;;;;;;0.95;0.95;;;;;;;;;;4991007;28;20030;-78
2023/08/18 01:46:01;;;;;;;1.30;1.30;;;;;;;;;;4992157;28;20030;-77
2023/08/18 01:48:27;;;;;;;1.30;1.30;;;;;;;;;;5008685;28;20049;-78
2023/08/18 01:50:53;;;;;;;1.42;1.30;;;;;;;;;;4999696;28;20071;-78
2023/08/18 01:53:19;;;;;;;1.00;1.00;;;;;;;;;;5010926;28;20034;-77
2023/08/18 01:55:46;;;;;;;1.10;1.10;;;;;;;;;;4996741;28;20034;-77
2023/08/18 01:58:13;;;;;;;1.33;1.30;;;;;;;;;;4991321;28;20054;-77
2023/08/18 02:00:39;;;;;;;1.10;1.10;;;;;;;;;;5025499;28;20385;-77
2023/08/18 02:03:05;;;;;;;1.23;1.23;;;;;;;;;;5041331;28;20017;-77
2023/08/18 02:05:31;;;;;;;1.50;1.40;;;;;;;;;;5023890;28;20033;-78
2023/08/18 02:07:58;;;;;;;1.30;1.30;;;;;;;;;;5010010;28;20029;-78
2023/08/18 02:10:24;;;;;;;1.23;1.20;;;;;;;;;;5019051;28;20022;-77
2023/08/18 02:12:50;;;;;;;1.58;1.40;;;;;;;;;;5006633;28;20124;-78
2023/08/18 02:15:16;;;;;;;1.52;1.42;;;;;;;;;;5015042;28;20034;-76
2023/08/18 02:17:42;;;;;;;1.55;1.45;;;;;;;;;;5001991;28;20033;-77
2023/08/18 02:20:09;;;;;;;1.60;1.30;;;;;;;;;;5021763;28;20029;-77
2023/08/18 02:22:35;;;;;;;1.60;1.50;;;;;;;;;;5010345;28;20018;-77
2023/08/18 02:25:01;;;;;;;1.35;1.35;;;;;;;;;;4984621;28;20026;-77
2023/08/18 02:27:27;;;;;;;1.60;1.50;;;;;;;;;;4988118;28;20030;-77
2023/08/18 02:29:53;;;;;;;1.60;1.50;;;;;;;;;;5021996;28;20064;-77
2023/08/18 02:32:19;;;;;;;1.20;1.10;;;;;;;;;;5021097;28;20088;-77
2023/08/18 02:34:46;;;;;;;1.45;1.38;;;;;;;;;;5031223;28;20033;-77
2023/08/18 02:37:12;;;;;;;1.25;1.25;;;;;;;;;;5023608;28;20045;-77
2023/08/18 02:39:39;;;;;;;1.40;1.30;;;;;;;;;;5041830;28;20031;-77
2023/08/18 02:42:05;;;;;;;1.40;1.40;;;;;;;;;;5030731;28;20385;-78
2023/08/18 02:44:31;;;;;;;1.45;1.35;;;;;;;;;;5016630;28;20014;-78
2023/08/18 02:46:58;;;;;;;1.15;1.15;;;;;;;;;;5001192;28;20030;-77
2023/08/18 02:49:24;;;;;;;1.17;1.17;;;;;;;;;;5000888;28;20466;-78
2023/08/18 02:51:50;;;;;;;0.82;0.82;;;;;;;;;;5001597;28;20171;-77
2023/08/18 02:54:16;;;;;;;1.08;1.08;;;;;;;;;;5018453;28;20045;-77
2023/08/18 02:56:42;;;;;;;1.05;1.05;;;;;;;;;;5002811;28;20080;-78
2023/08/18 02:59:08;;;;;;;0.80;0.80;;;;;;;;;;5019946;28;20025;-78
2023/08/18 03:01:34;;;;;;;1.05;1.05;;;;;;;;;;5020559;28;20378;-77
2023/08/18 03:04:00;;;;;;;1.00;1.00;;;;;;;;;;5011190;28;20022;-77
2023/08/18 03:06:26;;;;;;;0.90;0.90;;;;;;;;;;5032364;28;20155;-77
2023/08/18 03:08:52;;;;;;;1.08;1.08;;;;;;;;;;5038706;28;20044;-77
2023/08/18 03:11:19;;;;;;;0.90;0.90;;;;;;;;;;5028374;28;20025;-78
2023/08/18 03:13:45;;;;;;;1.17;1.17;;;;;;;;;;5024085;28;20026;-78
2023/08/18 03:16:11;;;;;;;1.23;1.20;;;;;;;;;;5005349;28;20068;-78
2023/08/18 03:18:37;;;;;;;1.15;1.15;;;;;;;;;;5016644;28;20429;-77
2023/08/18 03:21:03;;;;;;;1.00;1.00;;;;;;;;;;5021551;28;20032;-78
2023/08/18 03:23:30;;;;;;;0.98;0.98;;;;;;;;;;5025259;28;20050;-80
2023/08/18 03:26:03;;;;;;;0.95;0.95;;;;;;;;;;5003363;28;20018;-77
2023/08/18 03:28:31;;;;;;;1.00;1.00;;;;;;;;;;5042260;28;20018;-78
2023/08/18 03:31:00;;;;;;;0.93;0.93;;;;;;;;;;5025792;28;20419;-78
2023/08/18 03:33:27;;;;;;;1.25;1.15;;;;;;;;;;5016255;28;20045;-79
2023/08/18 03:35:53;;;;;;;1.13;1.13;;;;;;;;;;4991150;28;20449;-77
2023/08/18 03:38:19;;;;;;;0.70;0.70;;;;;;;;;;5025501;28;20037;-78
2023/08/18 03:40:45;;;;;;;1.23;1.23;;;;;;;;;;5033816;28;20072;-76
2023/08/18 03:43:11;;;;;;;1.10;1.10;;;;;;;;;;4996413;28;20076;-78
2023/08/18 03:45:37;;;;;;;1.15;1.10;;;;;;;;;;5015589;28;20018;-79
2023/08/18 03:48:04;;;;;;;0.73;0.73;;;;;;;;;;5017169;28;20053;-80
2023/08/18 03:50:30;;;;;;;1.20;1.10;;;;;;;;;;5016652;28;20060;-81
2023/08/18 03:52:57;;;;;;;1.00;1.00;;;;;;;;;;5017247;28;20057;-79
2023/08/18 03:55:23;;;;;;;0.85;0.85;;;;;;;;;;5019263;28;20515;-80
2023/08/18 03:57:50;;;;;;;1.23;1.13;;;;;;;;;;5034157;28;20030;-77
2023/08/18 04:00:17;;;;;;;1.00;0.98;;;;;;;;;;5015099;28;20018;-78
2023/08/18 04:02:43;;;;;;;0.90;0.90;;;;;;;;;;5014978;28;20029;-80
2023/08/18 04:05:10;;;;;;;1.17;1.17;;;;;;;;;;5015258;28;20054;-80
2023/08/18 04:07:36;;;;;;;1.02;0.98;;;;;;;;;;5014839;28;20030;-79
2023/08/18 04:10:03;;;;;;;0.95;0.88;;;;;;;;;;5017289;28;20104;-81
2023/08/18 04:12:29;;;;;;;0.90;0.90;;;;;;;;;;5033837;28;20017;-78
2023/08/18 04:14:55;;;;;;;1.20;1.20;;;;;;;;;;5026166;28;20052;-79
2023/08/18 04:17:21;;;;;;;0.98;0.98;;;;;;;;;;5015562;28;20033;-79
2023/08/18 04:19:47;;;;;;;1.20;1.13;;;;;;;;;;5015538;28;20037;-79
2023/08/18 04:22:13;;;;;;;1.13;1.13;;;;;;;;;;5016355;28;20026;-79
2023/08/18 04:24:40;;;;;;;1.17;1.17;;;;;;;;;;5014729;28;20026;-78
2023/08/18 04:27:06;;;;;;;1.58;1.48;;;;;;;;;;5029877;28;20030;-79
2023/08/18 04:29:32;;;;;;;0.80;0.80;;;;;;;;;;5011361;28;20029;-79
2023/08/18 04:31:58;;;;;;;1.20;1.20;;;;;;;;;;5031188;28;20048;-78
2023/08/18 04:34:24;;;;;;;1.40;1.23;;;;;;;;;;5027915;28;20072;-79
2023/08/18 04:36:50;;;;;;;1.20;1.20;;;;;;;;;;5014558;28;20099;-77
2023/08/18 04:39:16;;;;;;;1.40;1.30;;;;;;;;;;5013224;28;20018;-77
2023/08/18 04:41:42;;;;;;;1.00;1.00;;;;;;;;;;5012752;28;20026;-77
2023/08/18 04:44:08;;;;;;;1.23;1.23;;;;;;;;;;4994749;28;20461;-76
2023/08/18 04:46:35;;;;;;;1.45;1.35;;;;;;;;;;5008679;28;20029;-77
2023/08/18 04:49:01;;;;;;;1.08;0.98;;;;;;;;;;5012030;28;20045;-77
2023/08/18 04:51:28;;;;;;;1.20;1.10;;;;;;;;;;5012731;28;20022;-77
2023/08/18 04:53:54;;;;;;;1.10;1.10;;;;;;;;;;5012654;28;20022;-76
2023/08/18 04:56:20;;;;;;;1.25;1.15;;;;;;;;;;5017684;28;20025;-77
2023/08/18 04:58:46;;;;;;;1.00;1.00;;;;;;;;;;5024132;28;20507;-77
2023/08/18 05:01:12;;;;;;;1.23;1.13;;;;;;;;;;5032110;28;20079;-77
2023/08/18 05:03:38;;;;;;;1.30;1.20;;;;;;;;;;5032397;28;20018;-77
2023/08/18 05:06:08;;;;;;;2.22;1.35;;;;;;;;;;5021304;28;20030;-77
2023/08/18 05:08:35;;;;;;;1.95;1.20;;;;;;;;;;5011320;28;20049;-77
2023/08/18 05:11:05;;;;;;;1.80;1.70;;;;;;;;;;5024385;28;20022;-77
2023/08/18 05:13:32;;;;;;;1.67;1.58;;;;;;;;;;5032137;28;20028;-77
2023/08/18 05:16:00;;;;;;;2.50;1.75;;;;;;;;;;5021911;28;20038;-76
2023/08/18 05:18:26;;;;;;;2.65;1.65;;;;;;;;;;5000968;28;20397;-77
2023/08/18 05:20:52;;;;;;;2.30;2.10;;;;;;;;;;4992877;28;20018;-76
2023/08/18 05:23:19;;;;;;;1.67;1.50;;;;;;;;;;4992444;28;20109;-76
2023/08/18 05:25:45;;;;;;;2.22;2.03;;;;;;;;;;4986195;28;20508;-77
2023/08/18 05:28:13;;;;;;;1.52;1.42;;;;;;;;;;5007240;28;20059;-77
2023/08/18 05:30:39;;;;;;;1.60;1.45;;;;;;;;;;5033401;28;20506;-77
2023/08/18 05:33:05;;;;;;;1.77;1.67;;;;;;;;;;5041027;28;20022;-76
2023/08/18 05:35:32;;;;;;;1.92;1.70;;;;;;;;;;5030552;28;20053;-76
2023/08/18 05:37:58;;;;;;;1.80;1.60;;;;;;;;;;5000590;28;20069;-76
2023/08/18 05:40:24;;;;;;;1.63;1.52;;;;;;;;;;4994601;28;20073;-77
2023/08/18 05:42:50;;;;;;;1.73;1.63;;;;;;;;;;4994168;28;20026;-77
2023/08/18 05:45:16;;;;;;;1.90;1.50;;;;;;;;;;5010381;28;20025;-76
2023/08/18 05:47:42;;;;;;;1.63;1.50;;;;;;;;;;5027960;28;20030;-77
2023/08/18 05:50:11;;;;;;;1.25;1.25;;;;;;;;;;5038730;28;20452;-77
2023/08/18 05:52:37;;;;;;;1.27;1.20;;;;;;;;;;5036452;28;20030;-76
2023/08/18 05:55:04;;;;;;;1.20;1.20;;;;;;;;;;5036347;28;20100;-76
2023/08/18 05:57:30;;;;;;;1.30;1.20;;;;;;;;;;5022443;28;20034;-77
2023/08/18 05:59:56;;;;;;;1.38;1.30;;;;;;;;;;5014830;28;20137;-77
2023/08/18 06:02:22;;;;;;;1.58;1.48;;;;;;;;;;5017160;28;20034;-77
2023/08/18 06:04:48;;;;;;;1.85;1.67;;;;;;;;;;5016659;28;20460;-77
2023/08/18 06:07:15;;;;;;;1.48;1.38;;;;;;;;;;5016504;28;20398;-77
2023/08/18 06:09:41;;;;;;;1.58;1.48;;;;;;;;;;5016829;28;20029;-77
2023/08/18 06:12:07;;;;;;;2.35;1.58;;;;;;;;;;5016684;28;20030;-77
2023/08/18 06:14:33;;;;;;;2.30;1.60;;;;;;;;;;5015558;28;20404;-77
2023/08/18 06:16:59;;;;;;;1.83;1.73;;;;;;;;;;5015667;28;20049;-76
2023/08/18 06:19:25;;;;;;;2.17;1.92;;;;;;;;;;4998990;28;20035;-75
2023/08/18 06:21:52;;;;;;;2.42;1.90;;;;;;;;;;4996596;28;20034;-76
2023/08/18 06:24:18;;;;;;;1.95;1.67;;;;;;;;;;4998125;28;20029;-78
2023/08/18 06:26:44;;;;;;;2.42;1.80;;;;;;;;;;4999969;28;20031;-78
2023/08/18 06:29:10;;;;;;;1.65;1.55;;;;;;;;;;5020575;28;20029;-76
2023/08/18 06:31:36;;;;;;;1.50;1.40;;;;;;;;;;5023539;28;20009;-76
2023/08/18 06:34:02;;;;;;;1.77;1.67;;;;;;;;;;5032841;28;20022;-76
2023/08/18 06:36:28;;;;;;;1.40;1.30;;;;;;;;;;5033643;28;20053;-76
2023/08/18 06:38:54;;;;;;;1.23;1.20;;;;;;;;;;4998391;28;20038;-77
2023/08/18 06:41:20;;;;;;;2.20;1.25;;;;;;;;;;4992402;28;20033;-77
2023/08/18 06:43:46;;;;;;;1.60;1.40;;;;;;;;;;5008564;28;20022;-76
2023/08/18 06:46:12;;;;;;;1.00;1.00;;;;;;;;;;4997498;28;20477;-76
2023/08/18 06:48:38;;;;;;;1.38;1.27;;;;;;;;;;5006474;28;20110;-76
2023/08/18 06:51:04;;;;;;;1.13;1.10;;;;;;;;;;4997026;28;20375;-76
2023/08/18 06:53:30;;;;;;;1.10;1.10;;;;;;;;;;5012478;28;20041;-76
2023/08/18 06:55:56;;;;;;;1.02;1.02;;;;;;;;;;4997877;28;20036;-76
2023/08/18 06:58:22;;;;;;;1.45;1.35;;;;;;;;;;5015614;28;20056;-76
2023/08/18 07:00:49;;;;;;;2.15;1.73;;;;;;;;;;5012682;28;20052;-76
2023/08/18 07:03:15;;;;;;;1.60;1.50;;;;;;;;;;5016814;28;20026;-76
2023/08/18 07:05:41;;;;;;;1.63;1.52;;;;;;;;;;5015487;28;20018;-76
2023/08/18 07:08:07;;;;;;;1.67;1.58;;;;;;;;;;5016112;28;20397;-77
2023/08/18 07:10:33;;;;;;;1.67;1.58;;;;;;;;;;4998618;28;20113;-76
2023/08/18 07:12:59;;;;;;;1.85;1.67;;;;;;;;;;4996963;28;20037;-76
2023/08/18 07:15:25;;;;;;;1.70;1.60;;;;;;;;;;4998041;28;20034;-76
2023/08/18 07:17:51;;;;;;;1.45;1.35;;;;;;;;;;4998535;28;20026;-77
2023/08/18 07:20:17;;;;;;;1.60;1.50;;;;;;;;;;5008549;28;20052;-76
2023/08/18 07:22:43;;;;;;;1.52;1.42;;;;;;;;;;5015550;28;20025;-76
2023/08/18 07:25:10;;;;;;;1.50;1.40;;;;;;;;;;5014442;28;20018;-77
2023/08/18 07:27:36;;;;;;;1.20;1.20;;;;;;;;;;5014874;28;20030;-77
2023/08/18 07:30:04;;;;;;;1.50;1.27;;;;;;;;;;5016486;28;20037;-77
2023/08/18 07:32:30;;;;;;;0.98;0.93;;;;;;;;;;5021134;28;20516;-77
2023/08/18 07:34:56;;;;;;;1.10;1.10;;;;;;;;;;5015553;28;20034;-76
2023/08/18 07:37:23;;;;;;;1.38;1.27;;;;;;;;;;5035453;28;20086;-76
2023/08/18 07:39:50;;;;;;;1.00;1.00;;;;;;;;;;5000143;28;20421;-78
2023/08/18 07:42:16;;;;;;;1.08;1.08;;;;;;;;;;4999807;28;20019;-76
2023/08/18 07:44:42;;;;;;;1.00;1.00;;;;;;;;;;4997508;28;20030;-78
2023/08/18 07:47:08;;;;;;;1.00;1.00;;;;;;;;;;4997871;28;20049;-78
2023/08/18 07:49:34;;;;;;;1.25;1.20;;;;;;;;;;4998615;28;20105;-77
2023/08/18 07:52:00;;;;;;;1.40;1.30;;;;;;;;;;4996674;28;20527;-76
2023/08/18 07:54:26;;;;;;;2.28;1.40;;;;;;;;;;4994867;28;20473;-76
2023/08/18 07:56:52;;;;;;;2.75;1.70;;;;;;;;;;4994705;28;20544;-78
2023/08/18 07:59:19;;;;;;;1.33;1.20;;;;;;;;;;5008779;28;20022;-77
2023/08/18 08:01:45;;;;;;;3.17;1.40;;;;;;;;;;5013329;28;20480;-77
2023/08/18 08:04:11;;;;;;;1.30;1.20;;;;;;;;;;5014183;28;20077;-76
2023/08/18 08:06:37;;;;;;;1.42;1.33;;;;;;;;;;5016310;28;20234;-76
2023/08/18 08:09:03;;;;;;;1.40;1.30;;;;;;;;;;5015567;28;20393;-77
2023/08/18 08:11:29;;;;;;;1.30;1.20;;;;;;;;;;5012605;28;20030;-77
2023/08/18 08:13:55;;;;;;;1.27;1.27;;;;;;;;;;5012884;28;20030;-77
2023/08/18 08:16:22;;;;;;;1.00;1.00;;;;;;;;;;5013821;28;20108;-77
2023/08/18 08:18:48;;;;;;;1.00;1.00;;;;;;;;;;5013352;28;20025;-77
2023/08/18 08:21:15;;;;;;;1.10;1.10;;;;;;;;;;5008724;28;20038;-77
2023/08/18 08:23:41;;;;;;;2.65;1.65;;;;;;;;;;4993883;28;20069;-77
2023/08/18 08:26:08;;;;;;;2.17;1.17;;;;;;;;;;4994489;28;20030;-76
2023/08/18 08:28:34;;;;;;;1.63;1.52;;;;;;;;;;5002601;28;20026;-76
2023/08/18 08:31:00;;;;;;;1.17;1.17;;;;;;;;;;5013678;28;20026;-76
2023/08/18 08:33:26;;;;;;;1.45;1.35;;;;;;;;;;4994103;28;20113;-77
2023/08/18 08:35:52;;;;;;;1.20;1.20;;;;;;;;;;4976561;28;20041;-77
2023/08/18 08:38:18;;;;;;;1.40;1.30;;;;;;;;;;4994081;28;20425;-76
2023/08/18 08:40:44;;;;;;;1.20;1.20;;;;;;;;;;4994011;28;20437;-78
2023/08/18 08:43:11;;;;;;;1.13;1.13;;;;;;;;;;5007945;28;20049;-77
2023/08/18 08:45:38;;;;;;;1.30;1.30;;;;;;;;;;5013149;28;20081;-75
2023/08/18 08:48:06;;;;;;;1.38;1.27;;;;;;;;;;5013724;28;20504;-77
2023/08/18 08:50:34;;;;;;;1.10;1.10;;;;;;;;;;4996243;28;20522;-76
2023/08/18 08:53:01;;;;;;;1.50;1.40;;;;;;;;;;5007674;28;20034;-77
2023/08/18 08:55:31;;;;;;;1.50;1.40;;;;;;;;;;4994644;28;20053;-76
2023/08/18 08:57:58;;;;;;;1.75;1.65;;;;;;;;;;4998026;28;20030;-77
2023/08/18 09:00:24;;;;;;;1.20;1.20;;;;;;;;;;5018572;28;20018;-76
2023/08/18 09:02:50;;;;;;;1.13;1.13;;;;;;;;;;5025956;28;20551;-77
2023/08/18 09:05:17;;;;;;;1.13;1.13;;;;;;;;;;5014853;28;20101;-77
2023/08/18 09:07:43;;;;;;;1.30;1.30;;;;;;;;;;5013270;28;20417;-77
2023/08/18 09:10:09;;;;;;;1.10;1.10;;;;;;;;;;5013907;28;20528;-77
2023/08/18 09:12:36;;;;;;;1.95;1.30;;;;;;;;;;5014268;28;20389;-77
2023/08/18 09:15:02;;;;;;;1.52;1.42;;;;;;;;;;5013067;28;20029;-77
2023/08/18 09:17:28;;;;;;;1.00;1.00;;;;;;;;;;5002191;28;20085;-77
2023/08/18 09:19:58;;;;;;;1.30;1.30;;;;;;;;;;4976782;28;20018;-77
2023/08/18 09:22:24;;;;;;;1.30;1.20;;;;;;;;;;4997994;28;20024;-77
2023/08/18 09:24:51;;;;;;;1.15;1.15;;;;;;;;;;4998040;28;20559;-76
2023/08/18 09:27:18;;;;;;;1.45;1.38;;;;;;;;;;4981422;28;20468;-76
2023/08/18 09:29:44;;;;;;;1.10;1.10;;;;;;;;;;5014865;28;20033;-76
2023/08/18 09:32:11;;;;;;;1.67;1.35;;;;;;;;;;5017570;28;20056;-76
2023/08/18 09:34:46;;;;;;;1.20;1.20;;;;;;;;;;5002721;28;20030;-77
2023/08/18 09:37:12;;;;;;;1.05;1.05;;;;;;;;;;5016177;28;20493;-77
2023/08/18 09:39:38;;;;;;;1.00;1.00;;;;;;;;;;5022169;28;20045;-77
2023/08/18 09:42:06;;;;;;;1.48;1.20;;;;;;;;;;5030943;28;20029;-77
2023/08/18 09:44:33;;;;;;;1.20;1.20;;;;;;;;;;5024262;28;20037;-77
2023/08/18 09:46:59;;;;;;;1.13;1.13;;;;;;;;;;5024686;28;20030;-77
2023/08/18 09:49:27;;;;;;;1.75;1.02;;;;;;;;;;5026377;28;20027;-77
2023/08/18 09:51:58;;;;;;;1.42;1.38;;;;;;;;;;5011497;28;20069;-77
2023/08/18 09:54:26;;;;;;;2.17;1.98;;;;;;;;;;5005373;28;20041;-77
2023/08/18 09:56:55;;;;;;;1.25;1.25;;;;;;;;;;4997015;28;20050;-76
2023/08/18 09:59:45;;;;;;;1.33;1.23;;;;;;;;;;5015817;28;20033;-77
2023/08/18 10:02:15;;;;;;;1.15;1.15;;;;;;;;;;5036100;28;20025;-77
2023/08/18 10:04:41;;;;;;;1.15;1.05;;;;;;;;;;5018079;28;20014;-77
2023/08/18 10:07:08;;;;;;;1.30;1.30;;;;;;;;;;5008551;28;20030;-77
2023/08/18 10:09:34;;;;;;;1.48;1.33;;;;;;;;;;4996327;28;20025;-77
2023/08/18 10:12:02;;;;;;;1.50;1.50;;;;;;;;;;5016828;28;20101;-78
2023/08/18 10:14:30;;;;;;;1.70;1.60;;;;;;;;;;5015745;28;20476;-78
2023/08/18 10:16:56;;;;;;;1.60;1.50;;;;;;;;;;5015533;28;20148;-76
2023/08/18 10:19:41;;;;;;;1.50;1.40;;;;;;;;;;5016232;28;20030;-77
2023/08/18 10:22:07;;;;;;;1.35;1.27;;;;;;;;;;5014687;28;20266;-77
2023/08/18 10:24:36;;;;;;;1.20;1.20;;;;;;;;;;5014355;28;20384;-77
2023/08/18 10:27:03;;;;;;;1.27;1.27;;;;;;;;;;5015565;28;20021;-77
2023/08/18 10:29:29;;;;;;;1.63;1.52;;;;;;;;;;5017853;28;20380;-77
2023/08/18 10:31:56;;;;;;;1.40;1.30;;;;;;;;;;5015380;28;20033;-77
2023/08/18 10:34:23;;;;;;;1.48;1.38;;;;;;;;;;5016826;28;20113;-76
2023/08/18 10:36:58;;;;;;;1.45;1.45;;;;;;;;;;5007092;28;20041;-77
2023/08/18 10:39:24;;;;;;;1.52;1.42;;;;;;;;;;4997288;28;20076;-77
2023/08/18 10:42:10;;;;;;;1.70;1.60;;;;;;;;;;4981081;28;20413;-76
2023/08/18 10:44:37;;;;;;;1.92;1.83;;;;;;;;;;4996595;28;20015;-77
2023/08/18 10:47:03;;;;;;;1.55;1.45;;;;;;;;;;4996762;28;20073;-77
2023/08/18 10:49:30;;;;;;;1.25;1.25;;;;;;;;;;4997253;28;20378;-77
2023/08/18 10:51:56;;;;;;;2.63;1.50;;;;;;;;;;5016633;28;20018;-77
2023/08/18 10:54:23;;;;;;;1.88;1.77;;;;;;;;;;5016894;28;20018;-77
2023/08/18 10:56:49;;;;;;;1.70;1.60;;;;;;;;;;5017085;28;20048;-77
2023/08/18 10:59:16;;;;;;;1.90;1.80;;;;;;;;;;5029436;28;20444;-77
2023/08/18 11:01:42;;;;;;;1.70;1.60;;;;;;;;;;5037831;28;20025;-77
2023/08/18 11:04:09;;;;;;;1.90;1.80;;;;;;;;;;5037543;28;20064;-77
2023/08/18 11:06:35;;;;;;;1.70;1.60;;;;;;;;;;5028124;28;20022;-77
2023/08/18 11:09:05;;;;;;;2.60;1.85;;;;;;;;;;5015702;28;20416;-76
2023/08/18 11:11:31;;;;;;;1.65;1.55;;;;;;;;;;5016212;28;20132;-77
2023/08/18 11:13:57;;;;;;;1.52;1.42;;;;;;;;;;5016364;28;20480;-78
2023/08/18 11:16:24;;;;;;;1.65;1.55;;;;;;;;;;5019595;28;20041;-77
2023/08/18 11:18:51;;;;;;;1.70;1.60;;;;;;;;;;5017107;28;20066;-77
2023/08/18 11:21:18;;;;;;;1.40;1.40;;;;;;;;;;5017939;28;20026;-77
2023/08/18 11:23:44;;;;;;;1.60;1.50;;;;;;;;;;5001055;28;20105;-76
2023/08/18 11:26:10;;;;;;;2.05;1.52;;;;;;;;;;4996106;28;20034;-77
2023/08/18 11:28:36;;;;;;;1.75;1.65;;;;;;;;;;5002858;28;20385;-76
2023/08/18 11:31:05;;;;;;;2.35;2.15;;;;;;;;;;5011502;28;20037;-77
2023/08/18 11:33:31;;;;;;;1.85;1.35;;;;;;;;;;5012043;28;20485;-77
2023/08/18 11:35:57;;;;;;;2.80;1.60;;;;;;;;;;5017495;28;20045;-77
2023/08/18 11:38:24;;;;;;;1.77;1.67;;;;;;;;;;5015704;28;20018;-77
2023/08/18 11:40:50;;;;;;;1.80;1.70;;;;;;;;;;5024891;28;20017;-76
2023/08/18 11:43:16;;;;;;;1.67;1.58;;;;;;;;;;5031193;28;20076;-78
2023/08/18 11:45:42;;;;;;;1.38;1.38;;;;;;;;;;5019865;28;20025;-76
2023/08/18 11:48:08;;;;;;;1.70;1.60;;;;;;;;;;5016450;28;20102;-77
2023/08/18 11:50:38;;;;;;;1.48;1.48;;;;;;;;;;5016759;28;20026;-77
2023/08/18 11:53:05;;;;;;;1.75;1.65;;;;;;;;;;5003242;28;20022;-78
2023/08/18 11:55:34;;;;;;;1.35;1.35;;;;;;;;;;5020350;28;20034;-76
2023/08/18 11:58:06;;;;;;;1.38;1.38;;;;;;;;;;5016329;28;20022;-77
2023/08/18 12:00:35;;;;;;;1.83;1.73;;;;;;;;;;5026162;28;20031;-78
2023/08/18 12:03:02;;;;;;;1.85;1.75;;;;;;;;;;5032022;28;20116;-78
2023/08/18 12:05:29;;;;;;;1.80;1.70;;;;;;;;;;5005147;28;20060;-77
2023/08/18 12:07:55;;;;;;;1.85;1.73;;;;;;;;;;5011819;28;20033;-77
2023/08/18 12:10:21;;;;;;;2.10;1.90;;;;;;;;;;5021150;28;20014;-77
2023/08/18 12:12:55;;;;;;;1.70;1.60;;;;;;;;;;5015949;28;20030;-77
2023/08/18 12:15:23;;;;;;;2.03;1.92;;;;;;;;;;5017637;28;20030;-78
2023/08/18 12:17:49;;;;;;;1.30;1.30;;;;;;;;;;5020776;28;20029;-77
2023/08/18 12:20:18;;;;;;;1.60;1.50;;;;;;;;;;5016211;28;20500;-79
2023/08/18 12:22:44;;;;;;;1.80;1.70;;;;;;;;;;5008538;28;20026;-77
2023/08/18 12:25:11;;;;;;;2.42;1.95;;;;;;;;;;5011147;28;20476;-78
2023/08/18 12:27:37;;;;;;;2.08;1.95;;;;;;;;;;5025504;28;20026;-77
2023/08/18 12:30:03;;;;;;;2.17;2.08;;;;;;;;;;5002716;28;20117;-77
2023/08/18 12:32:30;;;;;;;2.17;2.03;;;;;;;;;;4996634;28;20113;-77
2023/08/18 12:34:57;;;;;;;1.80;1.70;;;;;;;;;;5012739;28;20022;-77
2023/08/18 12:37:23;;;;;;;1.88;1.60;;;;;;;;;;5015086;28;20392;-77
2023/08/18 12:39:50;;;;;;;1.73;1.63;;;;;;;;;;5014704;28;20056;-77
2023/08/18 12:42:16;;;;;;;2.03;1.92;;;;;;;;;;5009674;28;20104;-77
2023/08/18 12:44:42;;;;;;;2.10;2.00;;;;;;;;;;5022464;28;20022;-76
2023/08/18 12:47:08;;;;;;;2.28;2.08;;;;;;;;;;5017005;28;20104;-77
2023/08/18 12:49:34;;;;;;;2.35;2.10;;;;;;;;;;5014195;28;20051;-77
2023/08/18 12:52:00;;;;;;;1.85;1.75;;;;;;;;;;5014481;28;20050;-76
2023/08/18 12:54:28;;;;;;;1.95;1.77;;;;;;;;;;5015659;28;20489;-78
2023/08/18 12:56:54;;;;;;;1.90;1.80;;;;;;;;;;5013153;28;20022;-77
2023/08/18 12:59:21;;;;;;;2.38;2.17;;;;;;;;;;5012245;28;20129;-76
2023/08/18 13:01:47;;;;;;;1.80;1.70;;;;;;;;;;5012801;28;20026;-77
2023/08/18 13:04:13;;;;;;;2.15;2.05;;;;;;;;;;5014690;28;20026;-75
2023/08/18 13:06:39;;;;;;;2.90;1.75;;;;;;;;;;5012453;28;20037;-76
2023/08/18 13:09:06;;;;;;;2.13;1.77;;;;;;;;;;5015207;28;20559;-77
2023/08/18 13:11:33;;;;;;;2.10;1.90;;;;;;;;;;5019083;28;20045;-77
2023/08/18 13:14:06;;;;;;;1.70;1.60;;;;;;;;;;5012269;28;20053;-78
2023/08/18 13:16:33;;;;;;;3.40;1.98;;;;;;;;;;5018045;28;20022;-76
2023/08/18 13:18:59;;;;;;;2.58;1.83;;;;;;;;;;5010043;28;20026;-77
2023/08/18 13:21:25;;;;;;;3.42;1.83;;;;;;;;;;5013661;28;20018;-77
2023/08/18 13:23:54;;;;;;;2.42;1.88;;;;;;;;;;5020663;28;20203;-77
2023/08/18 13:26:20;;;;;;;2.00;1.90;;;;;;;;;;4996525;28;20026;-77
2023/08/18 13:28:46;;;;;;;1.85;1.75;;;;;;;;;;4992867;28;20037;-77
2023/08/18 13:31:12;;;;;;;2.10;2.00;;;;;;;;;;5012014;28;20041;-77
2023/08/18 13:33:38;;;;;;;1.75;1.65;;;;;;;;;;5012245;28;20030;-76
2023/08/18 13:36:04;;;;;;;1.98;1.88;;;;;;;;;;5011840;28;20520;-76
2023/08/18 13:38:30;;;;;;;2.08;1.98;;;;;;;;;;5011901;28;20480;-77
2023/08/18 13:40:57;;;;;;;2.97;2.00;;;;;;;;;;5013406;28;20029;-76
2023/08/18 13:43:23;;;;;;;1.83;1.73;;;;;;;;;;5028032;28;20045;-75
2023/08/18 13:45:49;;;;;;;2.55;1.90;;;;;;;;;;5004952;28;20026;-77
2023/08/18 13:48:15;;;;;;;4.15;1.73;;;;;;;;;;5011558;28;20038;-76
2023/08/18 13:50:41;;;;;;;1.90;1.80;;;;;;;;;;5012193;28;20040;-77
2023/08/18 13:53:11;;;;;;;2.20;1.80;;;;;;;;;;5012465;28;20057;-77
2023/08/18 13:55:37;;;;;;;1.90;1.80;;;;;;;;;;5020810;28;20042;-77
2023/08/18 13:58:04;;;;;;;2.10;2.00;;;;;;;;;;5017287;28;20031;-77
2023/08/18 14:00:34;;;;;;;2.00;1.90;;;;;;;;;;5020992;28;20034;-76
2023/08/18 14:03:00;;;;;;;2.10;2.00;;;;;;;;;;5013371;28;20030;-76
2023/08/18 14:05:26;;;;;;;1.95;1.85;;;;;;;;;;5016753;28;20024;-77
2023/08/18 14:07:52;;;;;;;2.15;2.00;;;;;;;;;;5025718;28;20048;-77
2023/08/18 14:10:21;;;;;;;1.80;1.70;;;;;;;;;;5024061;28;20022;-79
2023/08/18 14:12:48;;;;;;;2.15;1.95;;;;;;;;;;4999900;28;20108;-78
2023/08/18 14:15:14;;;;;;;2.35;1.77;;;;;;;;;;5020117;28;20070;-78
2023/08/18 14:17:44;;;;;;;2.00;1.90;;;;;;;;;;5035771;28;20032;-78
2023/08/18 14:20:12;;;;;;;4.22;1.70;;;;;;;;;;5026281;28;20025;-78
2023/08/18 14:22:42;;;;;;;2.10;2.00;;;;;;;;;;5012025;28;20401;-78
2023/08/18 14:25:08;;;;;;;2.17;2.08;;;;;;;;;;4997491;28;20025;-78
2023/08/18 14:27:34;;;;;;;2.45;2.25;;;;;;;;;;5016585;28;20084;-77
2023/08/18 14:30:01;;;;;;;2.72;2.28;;;;;;;;;;5015047;28;20677;-78
2023/08/18 14:32:27;;;;;;;2.20;2.10;;;;;;;;;;5016340;28;20049;-78
2023/08/18 14:34:55;;;;;;;2.00;1.90;;;;;;;;;;5024687;28;20029;-78
2023/08/18 14:37:25;;;;;;;2.95;2.25;;;;;;;;;;5015225;28;20032;-77
2023/08/18 14:39:51;;;;;;;2.22;2.13;;;;;;;;;;5019043;28;20028;-77